createdAt,value
2022-08-10T00:01:24.342Z,1.37
2022-08-10T00:03:54.978Z,1.30
2022-08-10T00:06:25.564Z,1.20
2022-08-10T00:08:57.994Z,1.47
2022-08-10T00:11:28.858Z,1.25
2022-08-10T00:13:59.560Z,1.13
2022-08-10T00:16:31.391Z,1.33
2022-08-10T00:19:02.005Z,1.23
2022-08-10T00:21:32.690Z,1.10
2022-08-10T00:24:03.274Z,1.13
2022-08-10T00:27:50.162Z,1.57
2022-08-10T00:29:09.278Z,1.30
2022-08-10T00:31:58.672Z,1.10
2022-08-10T00:34:11.416Z,1.57
2022-08-10T00:36:42.298Z,1.20
2022-08-10T00:39:13.814Z,1.37
2022-08-10T00:41:45.206Z,1.33
2022-08-10T00:44:16.281Z,1.17
2022-08-10T00:46:47.934Z,1.40
2022-08-10T00:49:20.382Z,1.30
2022-08-10T00:51:50.968Z,1.33
2022-08-10T00:54:24.116Z,1.40
2022-08-10T00:57:15.902Z,1.50
2022-08-10T00:59:26.947Z,1.40
2022-08-10T01:02:08.651Z,1.47
2022-08-10T01:04:57.620Z,1.20
2022-08-10T01:09:57.209Z,1.60
2022-08-10T01:12:37.843Z,1.50
2022-08-10T01:15:03.862Z,1.47
2022-08-10T01:17:50.843Z,1.60
2022-08-10T01:20:30.548Z,1.50
2022-08-10T01:23:02.421Z,1.30
2022-08-10T01:26:10.352Z,1.50
2022-08-10T01:28:33.075Z,1.50
2022-08-10T01:31:05.890Z,1.47
2022-08-10T01:33:59.050Z,1.90
2022-08-10T01:36:15.241Z,1.80
2022-08-10T01:38:49.205Z,1.63
2022-08-10T01:41:23.959Z,1.43
2022-08-10T01:43:57.518Z,1.40
2022-08-10T01:46:32.463Z,1.57
2022-08-10T01:49:06.160Z,1.63
2022-08-10T01:51:39.654Z,1.60
2022-08-10T01:54:13.265Z,1.83
2022-08-10T01:56:47.039Z,1.30
2022-08-10T01:59:22.996Z,1.60
2022-08-10T02:01:56.568Z,2.27
2022-08-10T02:04:29.386Z,1.40
2022-08-10T02:07:01.758Z,1.70
2022-08-10T02:09:35.365Z,1.57
2022-08-10T02:12:09.149Z,1.43
2022-08-10T02:14:42.798Z,1.30
2022-08-10T02:17:59.718Z,1.60
2022-08-10T02:19:50.577Z,1.70
2022-08-10T02:22:37.753Z,1.80
2022-08-10T02:24:58.803Z,1.70
2022-08-10T02:27:30.607Z,1.50
2022-08-10T02:30:02.561Z,1.60
2022-08-10T02:32:38.135Z,1.73
2022-08-10T02:35:18.649Z,2.00
2022-08-10T02:37:46.855Z,1.60
2022-08-10T02:45:14.098Z,1.80
2022-08-10T02:45:18.930Z,1.83
2022-08-10T02:45:31.679Z,1.43
2022-08-10T02:48:05.235Z,1.80
2022-08-10T02:50:37.869Z,1.70
2022-08-10T02:53:56.608Z,1.70
2022-08-10T02:55:46.241Z,1.50
2022-08-10T02:58:20.409Z,1.90
2022-08-10T03:00:54.734Z,1.83
2022-08-10T03:03:27.939Z,1.63
2022-08-10T03:06:01.698Z,2.00
2022-08-10T03:08:35.483Z,1.63
2022-08-10T03:11:07.592Z,1.63
2022-08-10T03:13:39.128Z,1.77
2022-08-10T03:16:11.138Z,1.90
2022-08-10T03:18:42.409Z,1.83
2022-08-10T03:21:13.697Z,1.90
2022-08-10T03:23:45.998Z,2.20
2022-08-10T03:26:20.439Z,2.03
2022-08-10T03:28:51.230Z,1.67
2022-08-10T03:31:22.907Z,1.73
2022-08-10T03:33:54.614Z,1.80
2022-08-10T03:36:42.054Z,1.40
2022-08-10T03:38:58.416Z,1.80
2022-08-10T03:41:35.759Z,1.83
2022-08-10T03:44:08.177Z,1.90
2022-08-10T03:46:42.693Z,1.70
2022-08-10T03:49:14.888Z,1.80
2022-08-10T03:51:48.446Z,1.90
2022-08-10T03:54:20.099Z,1.83
2022-08-10T03:56:51.383Z,2.00
2022-08-10T03:59:22.591Z,1.90
2022-08-10T04:02:45.681Z,1.93
2022-08-10T04:04:27.369Z,1.97
2022-08-10T04:06:59.944Z,1.93
2022-08-10T04:09:54.765Z,2.00
2022-08-10T04:12:06.590Z,1.67
2022-08-10T04:14:49.960Z,1.97
2022-08-10T04:17:13.765Z,2.10
2022-08-10T04:19:45.963Z,1.90
2022-08-10T04:22:20.151Z,2.27
2022-08-10T04:24:53.679Z,1.73
2022-08-10T04:27:24.725Z,2.13
2022-08-10T04:29:56.221Z,2.00
2022-08-10T04:32:29.500Z,1.90
2022-08-10T04:35:01.376Z,2.17
2022-08-10T04:37:33.500Z,1.87
2022-08-10T04:40:05.711Z,1.87
2022-08-10T04:42:38.509Z,2.10
2022-08-10T04:45:12.046Z,2.07
2022-08-10T04:48:00.555Z,2.10
2022-08-10T04:50:15.103Z,1.67
2022-08-10T04:52:47.678Z,1.87
2022-08-10T04:55:18.256Z,2.23
2022-08-10T04:57:48.864Z,1.80
2022-08-10T05:00:22.472Z,1.77
2022-08-10T05:02:53.057Z,2.07
2022-08-10T05:05:23.695Z,1.97
2022-08-10T05:07:56.997Z,2.13
2022-08-10T05:10:27.059Z,2.30
2022-08-10T05:12:58.001Z,2.30
2022-08-10T05:15:28.929Z,2.20
2022-08-10T05:18:08.118Z,2.37
2022-08-10T05:20:32.193Z,2.23
2022-08-10T05:23:02.801Z,2.60
2022-08-10T05:25:38.018Z,2.33
2022-08-10T05:28:07.183Z,2.40
2022-08-10T05:30:38.028Z,2.47
2022-08-10T05:33:09.079Z,2.40
2022-08-10T05:35:57.197Z,2.37
2022-08-10T05:38:15.073Z,2.53
2022-08-10T05:40:48.103Z,2.40
2022-08-10T05:43:21.810Z,2.17
2022-08-10T05:46:19.509Z,2.50
2022-08-10T05:48:54.136Z,2.13
2022-08-10T05:50:58.269Z,2.40
2022-08-10T05:54:04.162Z,2.17
2022-08-10T05:58:38.696Z,2.30
2022-08-10T06:01:12.664Z,2.47
2022-08-10T06:06:25.145Z,2.17
2022-08-10T06:08:59.439Z,2.23
2022-08-10T06:12:27.062Z,2.60
2022-08-10T06:14:28.391Z,2.37
2022-08-10T06:16:58.309Z,2.50
2022-08-10T06:19:29.488Z,2.63
2022-08-10T06:22:01.769Z,2.43
2022-08-10T06:24:36.548Z,2.60
2022-08-10T06:27:08.106Z,2.37
2022-08-10T06:29:42.021Z,2.10
2022-08-10T06:32:15.051Z,2.07
2022-08-10T06:34:49.608Z,2.40
2022-08-10T06:37:23.568Z,2.07
2022-08-10T06:39:55.186Z,2.30
2022-08-10T06:42:30.681Z,2.27
2022-08-10T06:45:04.361Z,2.30
2022-08-10T06:47:40.213Z,2.70
2022-08-10T06:50:34.506Z,2.47
2022-08-10T06:55:49.572Z,2.40
2022-08-10T06:58:03.344Z,2.65
2022-08-10T07:00:37.384Z,2.53
2022-08-10T07:03:11.837Z,2.50
2022-08-10T07:05:50.994Z,2.37
2022-08-10T07:08:22.042Z,2.27
2022-08-10T07:10:54.806Z,2.25
2022-08-10T07:14:15.823Z,2.13
2022-08-10T07:16:00.899Z,2.53
2022-08-10T07:18:32.503Z,2.33
2022-08-10T07:21:04.335Z,2.30
2022-08-10T07:23:58.295Z,2.15
2022-08-10T07:26:11.797Z,2.33
2022-08-10T07:28:47.858Z,2.40
2022-08-10T07:31:49.268Z,2.52
2022-08-10T07:33:52.907Z,2.58
2022-08-10T07:36:25.166Z,2.08
2022-08-10T07:38:58.358Z,2.35
2022-08-10T07:41:32.203Z,2.30
2022-08-10T07:44:05.197Z,2.25
2022-08-10T07:46:38.917Z,2.65
2022-08-10T07:49:15.540Z,2.58
2022-08-10T07:51:45.787Z,2.60
2022-08-10T07:57:01.245Z,2.47
2022-08-10T07:59:35.810Z,2.80
2022-08-10T08:02:10.069Z,2.85
2022-08-10T08:04:42.266Z,2.25
2022-08-10T08:07:17.360Z,2.50
2022-08-10T08:09:58.179Z,2.17
2022-08-10T08:12:22.780Z,2.40
2022-08-10T08:14:54.621Z,2.30
2022-08-10T08:17:36.358Z,2.50
2022-08-10T08:20:01.474Z,2.20
2022-08-10T08:25:14.438Z,2.35
2022-08-10T08:27:47.597Z,2.45
2022-08-10T08:30:27.732Z,2.00
2022-08-10T08:32:53.785Z,2.87
2022-08-10T08:35:27.499Z,2.33
2022-08-10T08:38:31.760Z,2.50
2022-08-10T08:40:34.427Z,2.10
2022-08-10T08:43:31.394Z,1.95
2022-08-10T08:46:27.952Z,2.90
2022-08-10T08:50:05.311Z,2.20
2022-08-10T08:52:07.976Z,2.08
2022-08-10T08:54:33.399Z,2.10
2022-08-10T08:57:09.866Z,2.20
2022-08-10T09:02:34.887Z,2.17
2022-08-10T09:05:19.526Z,2.02
2022-08-10T09:08:03.155Z,2.08
2022-08-10T09:10:42.960Z,2.30
2022-08-10T09:16:03.576Z,2.35
2022-08-10T09:18:41.093Z,2.00
2022-08-10T09:21:16.991Z,2.33
2022-08-10T09:24:04.479Z,2.40
2022-08-10T09:26:27.273Z,2.35
2022-08-10T09:29:11.877Z,1.90
2022-08-10T09:36:23.502Z,2.20
2022-08-10T09:36:57.403Z,2.08
2022-08-10T09:40:06.938Z,2.15
2022-08-10T09:42:15.027Z,1.60
2022-08-10T09:44:57.271Z,1.70
2022-08-10T09:48:01.666Z,1.60
2022-08-10T09:50:11.254Z,1.90
2022-08-10T09:52:47.663Z,1.70
2022-08-10T09:55:24.494Z,1.95
2022-08-10T09:58:04.265Z,1.90
2022-08-10T10:00:38.913Z,1.70
2022-08-10T10:03:19.673Z,1.98
2022-08-10T10:05:54.872Z,1.85
2022-08-10T10:08:36.436Z,1.65
2022-08-10T10:11:11.782Z,2.05
2022-08-10T10:14:01.978Z,1.70
2022-08-10T10:16:55.048Z,1.90
2022-08-10T10:19:55.272Z,2.10
2022-08-10T10:22:49.990Z,1.98
2022-08-10T10:25:25.639Z,1.80
2022-08-10T10:28:06.592Z,1.90
2022-08-10T10:30:41.627Z,1.65
2022-08-10T10:33:15.669Z,1.80
2022-08-10T10:35:52.430Z,1.62
2022-08-10T10:38:27.108Z,1.65
2022-08-10T10:41:03.352Z,1.62
2022-08-10T10:46:37.192Z,1.50
2022-08-10T10:49:15.094Z,1.75
2022-08-10T10:51:50.537Z,1.80
2022-08-10T10:54:25.714Z,1.60
2022-08-10T10:57:00.978Z,2.12
2022-08-10T10:59:55.564Z,1.65
2022-08-10T11:02:13.388Z,1.57
2022-08-10T11:04:47.620Z,1.55
2022-08-10T11:07:31.739Z,1.60
2022-08-10T11:10:04.967Z,1.72
2022-08-10T11:15:12.269Z,1.52
2022-08-10T11:17:56.289Z,1.67
2022-08-10T11:20:34.808Z,1.62
2022-08-10T11:23:12.858Z,1.40
2022-08-10T11:25:46.788Z,1.47
2022-08-10T11:28:20.689Z,1.45
2022-08-10T11:30:54.326Z,1.40
2022-08-10T11:33:32.901Z,1.47
2022-08-10T11:36:05.709Z,1.85
2022-08-10T11:38:57.597Z,1.45
2022-08-10T11:42:09.792Z,1.50
2022-08-10T11:43:52.001Z,1.30
2022-08-10T11:46:28.716Z,1.60
2022-08-10T11:51:45.768Z,1.60
2022-08-10T11:54:23.215Z,1.60
2022-08-10T11:57:01.973Z,2.12
2022-08-10T11:59:50.128Z,1.65
2022-08-10T12:02:23.855Z,1.45
2022-08-10T12:04:57.096Z,1.62
2022-08-10T12:10:02.981Z,1.90
2022-08-10T12:10:13.522Z,1.75
2022-08-10T12:12:40.362Z,1.75
2022-08-10T12:17:56.131Z,1.82
2022-08-10T12:20:31.160Z,1.60
2022-08-10T12:23:07.041Z,2.12
2022-08-10T12:25:57.988Z,2.42
2022-08-10T12:28:17.894Z,2.12
2022-08-10T12:30:52.841Z,1.98
2022-08-10T12:33:26.706Z,2.05
2022-08-10T12:36:18.003Z,1.85
2022-08-10T12:38:40.782Z,2.15
2022-08-10T12:41:16.952Z,2.00
2022-08-10T12:44:09.675Z,2.40
2022-08-10T12:46:43.961Z,2.30
2022-08-10T12:49:18.773Z,2.10
2022-08-10T12:51:52.352Z,2.10
2022-08-10T12:54:32.505Z,2.10
2022-08-10T12:59:43.699Z,2.08
2022-08-10T13:02:21.526Z,2.20
2022-08-10T13:04:54.983Z,2.42
2022-08-10T13:08:03.636Z,2.00
2022-08-10T13:10:05.926Z,2.40
2022-08-10T13:12:40.438Z,2.47
2022-08-10T13:15:44.592Z,2.30
2022-08-10T13:18:05.418Z,2.45
2022-08-10T13:20:38.614Z,2.40
2022-08-10T13:23:13.764Z,2.70
2022-08-10T13:25:48.400Z,2.50
2022-08-10T13:28:37.834Z,2.42
2022-08-10T13:30:57.260Z,2.37
2022-08-10T13:34:40.548Z,2.12
2022-08-10T13:36:04.609Z,2.10
2022-08-10T13:38:37.598Z,2.37
2022-08-10T13:41:10.629Z,2.10
2022-08-10T13:43:51.473Z,2.25
2022-08-10T13:46:23.600Z,1.85
2022-08-10T13:48:55.384Z,2.05
2022-08-10T13:51:53.746Z,2.30
2022-08-10T13:54:03.384Z,2.12
2022-08-10T13:56:36.612Z,1.82
2022-08-10T13:59:10.064Z,2.10
2022-08-10T14:01:42.312Z,1.98
2022-08-10T14:04:16.016Z,1.82
2022-08-10T14:06:52.566Z,1.57
2022-08-10T14:09:29.822Z,2.12
2022-08-10T14:12:01.313Z,2.10
2022-08-10T14:14:32.829Z,2.02
2022-08-10T14:17:05.525Z,2.12
2022-08-10T14:19:43.409Z,2.10
2022-08-10T14:22:13.616Z,1.80
2022-08-10T14:24:44.286Z,2.37
2022-08-10T14:27:17.737Z,1.72
2022-08-10T14:29:51.610Z,1.87
2022-08-10T14:32:25.497Z,1.70
2022-08-10T14:37:38.658Z,1.77
2022-08-10T14:40:13.665Z,2.05
2022-08-10T14:42:49.432Z,2.33
2022-08-10T14:45:25.600Z,1.70
2022-08-10T14:48:01.071Z,2.05
2022-08-10T14:50:33.924Z,2.25
2022-08-10T14:53:09.324Z,2.00
2022-08-10T14:55:59.242Z,1.90
2022-08-10T14:58:21.105Z,2.10
2022-08-10T15:00:53.502Z,2.35
2022-08-10T15:04:01.733Z,2.00
2022-08-10T15:06:01.467Z,1.90
2022-08-10T15:08:37.099Z,1.82
2022-08-10T15:11:05.878Z,2.05
2022-08-10T15:13:37.506Z,2.02
2022-08-10T15:16:12.956Z,2.10
2022-08-10T15:18:58.297Z,1.98
2022-08-10T15:21:20.462Z,2.08
2022-08-10T15:24:05.670Z,1.72
2022-08-10T15:26:29.803Z,1.92
2022-08-10T15:29:22.790Z,2.02
2022-08-10T15:31:40.402Z,2.40
2022-08-10T15:34:29.122Z,2.33
2022-08-10T15:37:39.423Z,1.98
2022-08-10T15:40:25.834Z,1.98
2022-08-10T15:42:23.344Z,1.90
2022-08-10T15:44:55.888Z,2.00
2022-08-10T15:47:45.400Z,2.12
2022-08-10T15:50:05.489Z,2.02
2022-08-10T15:53:01.801Z,2.20
2022-08-10T15:55:43.191Z,1.98
2022-08-10T15:57:50.883Z,2.00
2022-08-10T16:00:23.246Z,2.08
2022-08-10T16:02:56.319Z,2.30
2022-08-10T16:06:00.383Z,1.70
2022-08-10T16:08:06.350Z,1.57
2022-08-10T16:13:50.973Z,1.82
2022-08-10T16:16:02.763Z,1.82
2022-08-10T16:18:36.039Z,1.80
2022-08-10T16:21:10.295Z,1.98
2022-08-10T16:23:44.266Z,1.90
2022-08-10T16:26:17.572Z,1.70
2022-08-10T16:28:51.441Z,2.37
2022-08-10T16:31:24.481Z,2.20
2022-08-10T16:33:58.140Z,1.62
2022-08-10T16:36:35.442Z,1.75
2022-08-10T16:39:08.219Z,1.80
2022-08-10T16:44:21.296Z,1.90
2022-08-10T16:46:52.871Z,1.80
2022-08-10T16:49:26.074Z,1.67
2022-08-10T16:51:59.176Z,1.70
2022-08-10T16:54:30.781Z,2.00
2022-08-10T16:57:04.886Z,1.87
2022-08-10T16:59:39.300Z,1.57
2022-08-10T17:02:12.886Z,1.50
2022-08-10T17:04:45.355Z,1.70
2022-08-10T17:07:19.617Z,1.60
2022-08-10T17:09:52.903Z,1.60
2022-08-10T17:15:10.199Z,1.70
2022-08-10T17:17:43.896Z,1.80
2022-08-10T17:20:31.541Z,1.60
2022-08-10T17:22:55.084Z,1.52
2022-08-10T17:25:48.840Z,1.57
2022-08-10T17:28:04.948Z,1.60
2022-08-10T17:30:57.858Z,1.30
2022-08-10T17:33:12.068Z,1.80
2022-08-10T17:35:44.882Z,1.70
2022-08-10T17:38:19.922Z,1.60
2022-08-10T17:40:53.767Z,1.75
2022-08-10T17:43:58.238Z,1.47
2022-08-10T17:46:00.656Z,2.20
2022-08-10T17:48:35.038Z,1.52
2022-08-10T17:51:09.961Z,1.45
2022-08-10T17:53:44.760Z,1.67
2022-08-10T17:56:17.289Z,1.67
2022-08-10T17:58:52.887Z,1.45
2022-08-10T18:01:41.435Z,1.57
2022-08-10T18:04:01.002Z,1.72
2022-08-10T18:06:32.966Z,1.37
2022-08-10T18:09:06.011Z,1.50
2022-08-10T18:11:39.071Z,1.60
2022-08-10T18:14:11.062Z,1.55
2022-08-10T18:16:43.951Z,1.47
2022-08-10T18:19:17.555Z,1.55
2022-08-10T18:21:50.842Z,1.72
2022-08-10T18:24:23.181Z,1.50
2022-08-10T18:26:58.063Z,1.55
2022-08-10T18:29:30.522Z,1.40
2022-08-10T18:32:04.065Z,1.42
2022-08-10T18:34:37.144Z,1.42
2022-08-10T18:37:10.958Z,1.57
2022-08-10T18:39:44.813Z,1.40
2022-08-10T18:42:18.653Z,1.60
2022-08-10T18:44:52.610Z,1.52
2022-08-10T18:47:29.739Z,1.40
2022-08-10T18:50:06.003Z,1.50
2022-08-10T18:52:39.380Z,1.50
2022-08-10T18:55:23.238Z,1.82
2022-08-10T18:58:14.275Z,1.45
2022-08-10T19:00:52.758Z,1.55
2022-08-10T19:03:54.139Z,1.60
2022-08-10T19:06:25.189Z,1.37
2022-08-10T19:09:45.710Z,1.42
2022-08-10T19:12:05.110Z,1.50
2022-08-10T19:14:41.204Z,1.37
2022-08-10T19:17:15.885Z,1.62
2022-08-10T19:22:30.741Z,1.50
2022-08-10T19:25:05.840Z,1.30
2022-08-10T19:27:45.836Z,1.20
2022-08-10T19:30:18.461Z,1.30
2022-08-10T19:36:03.384Z,1.80
2022-08-10T19:38:38.379Z,1.67
2022-08-10T19:41:16.458Z,1.32
2022-08-10T19:46:35.976Z,1.40
2022-08-10T19:49:11.932Z,1.30
2022-08-10T19:51:48.721Z,1.37
2022-08-10T19:54:23.165Z,1.67
2022-08-10T19:57:00.950Z,1.20
2022-08-10T20:00:17.660Z,1.05
2022-08-10T20:02:11.506Z,1.50
2022-08-10T20:04:45.656Z,1.62
2022-08-10T20:07:19.577Z,1.70
2022-08-10T20:09:54.042Z,1.50
2022-08-10T20:12:30.469Z,1.52
2022-08-10T20:15:05.611Z,1.30
2022-08-10T20:17:52.858Z,1.32
2022-08-10T20:20:15.726Z,1.42
2022-08-10T20:22:49.740Z,1.02
2022-08-10T20:25:24.992Z,1.57
2022-08-10T20:28:01.667Z,1.40
2022-08-10T20:30:35.495Z,1.30
2022-08-10T20:33:11.762Z,1.47
2022-08-10T20:35:54.455Z,1.47
2022-08-10T20:38:28.981Z,1.40
2022-08-10T20:41:12.754Z,1.77
2022-08-10T20:43:48.564Z,1.40
2022-08-10T20:46:25.019Z,1.20
2022-08-10T20:49:02.344Z,1.55
2022-08-10T20:54:18.381Z,1.30
2022-08-10T20:56:55.982Z,1.40
2022-08-10T21:00:02.530Z,1.20
2022-08-10T21:02:27.010Z,1.42
2022-08-10T21:04:57.426Z,1.40
2022-08-10T21:08:00.398Z,2.30
2022-08-10T21:10:14.952Z,1.32
2022-08-10T21:12:59.256Z,1.70
2022-08-10T21:18:20.911Z,1.60
2022-08-10T21:21:01.828Z,1.45
2022-08-10T21:23:38.086Z,1.50
2022-08-10T21:26:10.129Z,1.40
2022-08-10T21:28:50.412Z,1.85
2022-08-10T21:31:39.870Z,1.60
2022-08-10T21:34:31.868Z,1.52
2022-08-10T21:36:55.781Z,1.30
2022-08-10T21:39:42.733Z,1.27
2022-08-10T21:42:26.830Z,1.70
2022-08-10T21:45:19.376Z,1.47
2022-08-10T21:48:17.294Z,1.25
2022-08-10T21:51:06.963Z,1.40
2022-08-10T21:53:59.554Z,1.60
2022-08-10T21:56:59.977Z,1.30
2022-08-10T21:59:56.493Z,1.45
2022-08-10T22:02:49.857Z,1.42
2022-08-10T22:05:39.171Z,1.60
2022-08-10T22:08:29.871Z,1.70
2022-08-10T22:11:21.575Z,1.52
2022-08-10T22:14:12.545Z,1.65
2022-08-10T22:17:07.356Z,1.47
2022-08-10T22:20:00.570Z,1.50
2022-08-10T22:22:56.239Z,1.70
2022-08-10T22:25:53.206Z,1.77
2022-08-10T22:28:41.767Z,1.60
2022-08-10T22:31:27.426Z,1.50
2022-08-10T22:31:51.480Z,1.60
2022-08-10T22:34:48.271Z,1.82
2022-08-10T22:37:45.028Z,1.80
2022-08-10T22:40:36.686Z,1.87
2022-08-10T22:43:35.264Z,1.65
2022-08-10T22:46:20.294Z,1.85
2022-08-10T22:49:00.003Z,1.62
2022-08-10T22:51:40.192Z,1.70
2022-08-10T22:54:36.117Z,1.70
2022-08-10T22:57:27.127Z,1.77
2022-08-10T22:59:58.514Z,2.33
2022-08-10T23:02:35.322Z,1.77
2022-08-10T23:05:10.360Z,1.90
2022-08-10T23:07:48.708Z,1.70
2022-08-10T23:10:22.285Z,2.10
2022-08-10T23:12:58.549Z,1.90
2022-08-10T23:15:49.778Z,1.80
2022-08-10T23:18:41.102Z,2.10
2022-08-10T23:21:15.057Z,1.95
2022-08-10T23:23:48.860Z,2.17
2022-08-10T23:26:22.464Z,2.00
2022-08-10T23:28:59.952Z,1.80
2022-08-10T23:31:58.417Z,2.15
2022-08-10T23:34:04.473Z,2.27
2022-08-10T23:36:38.732Z,1.70
2022-08-10T23:39:26.038Z,2.20
2022-08-10T23:41:46.637Z,1.80
2022-08-10T23:44:21.031Z,1.80
2022-08-10T23:47:11.601Z,1.77
2022-08-10T23:49:44.621Z,1.92
2022-08-10T23:52:19.204Z,2.03
2022-08-10T23:54:52.978Z,1.85
2022-08-10T23:57:26.409Z,1.80
